createdAt,value
2023-01-22T00:01:05.535Z,36.33
2023-01-22T00:03:33.609Z,33.42
2023-01-22T00:06:01.169Z,58.70
2023-01-22T00:08:28.663Z,68.13
2023-01-22T00:10:56.731Z,61.65
2023-01-22T00:13:25.393Z,51.22
2023-01-22T00:15:53.432Z,68.57
2023-01-22T00:18:21.031Z,55.80
2023-01-22T00:20:50.081Z,59.00
2023-01-22T00:23:17.979Z,18.67
2023-01-22T00:25:45.979Z,63.13
2023-01-22T00:28:14.307Z,62.10
2023-01-22T00:30:41.847Z,38.83
2023-01-22T00:33:09.472Z,63.88
2023-01-22T00:35:37.007Z,37.00
2023-01-22T00:38:05.161Z,85.10
2023-01-22T00:40:32.994Z,71.57
2023-01-22T00:43:00.480Z,59.17
2023-01-22T00:45:28.066Z,56.42
2023-01-22T00:47:55.594Z,47.88
2023-01-22T00:50:23.201Z,46.28
2023-01-22T00:52:50.741Z,78.07
2023-01-22T00:55:18.324Z,72.32
2023-01-22T00:57:45.939Z,70.25
2023-01-22T01:00:18.528Z,70.10
2023-01-22T01:03:06.743Z,74.97
2023-01-22T01:05:34.359Z,77.03
2023-01-22T01:08:01.871Z,71.93
2023-01-22T01:10:29.431Z,52.03
2023-01-22T01:12:57.002Z,64.65
2023-01-22T01:15:24.686Z,73.32
2023-01-22T01:17:52.262Z,68.43
2023-01-22T01:20:20.032Z,73.18
2023-01-22T01:22:47.728Z,70.13
2023-01-22T01:25:15.238Z,66.15
2023-01-22T01:27:42.783Z,75.30
2023-01-22T01:30:10.929Z,57.15
2023-01-22T01:32:38.540Z,70.82
2023-01-22T01:35:06.722Z,68.30
2023-01-22T01:37:34.222Z,67.78
2023-01-22T01:40:01.961Z,62.30
2023-01-22T01:42:38.611Z,67.65
2023-01-22T01:45:24.583Z,47.03
2023-01-22T01:48:03.008Z,66.70
2023-01-22T01:50:31.031Z,61.55
2023-01-22T01:53:00.690Z,56.33
2023-01-22T01:55:31.781Z,57.13
2023-01-22T01:58:04.667Z,83.63
2023-01-22T02:00:35.447Z,57.25
2023-01-22T02:03:03.340Z,83.93
2023-01-22T02:05:36.753Z,73.97
2023-01-22T02:08:05.543Z,71.05
2023-01-22T02:10:33.273Z,81.38
2023-01-22T02:13:07.836Z,77.40
2023-01-22T02:15:37.881Z,88.28
2023-01-22T02:18:05.587Z,70.78
2023-01-22T02:20:40.526Z,82.85
2023-01-22T02:23:08.590Z,62.15
2023-01-22T02:25:36.129Z,61.83
2023-01-22T02:28:06.490Z,85.88
2023-01-22T02:30:34.534Z,82.65
2023-01-22T02:33:02.036Z,81.13
2023-01-22T02:35:29.578Z,67.38
2023-01-22T02:37:57.091Z,82.97
2023-01-22T02:40:24.853Z,71.85
2023-01-22T02:42:53.684Z,90.28
2023-01-22T02:45:21.412Z,77.82
2023-01-22T02:47:49.352Z,75.93
2023-01-22T02:50:17.665Z,63.60
2023-01-22T02:52:45.272Z,62.70
2023-01-22T02:55:13.462Z,66.45
2023-01-22T02:57:41.458Z,69.65
2023-01-22T03:00:09.858Z,71.70
2023-01-22T03:02:37.432Z,30.05
2023-01-22T03:05:05.332Z,63.78
2023-01-22T03:07:42.473Z,81.25
2023-01-22T03:10:18.669Z,77.88
2023-01-22T03:13:06.733Z,74.75
2023-01-22T03:15:53.082Z,70.45
2023-01-22T03:18:39.231Z,58.80
2023-01-22T03:21:20.243Z,73.18
2023-01-22T03:23:50.717Z,64.70
2023-01-22T03:26:20.430Z,83.80
2023-01-22T03:28:49.212Z,64.88
2023-01-22T03:31:17.308Z,44.38
2023-01-22T03:33:45.201Z,35.70
2023-01-22T03:36:15.089Z,78.40
2023-01-22T03:38:48.763Z,71.18
2023-01-22T03:41:20.142Z,57.22
2023-01-22T03:43:49.430Z,72.30
2023-01-22T03:46:21.109Z,67.38
2023-01-22T03:48:56.231Z,71.15
2023-01-22T03:51:24.589Z,47.30
2023-01-22T03:53:52.064Z,71.07
2023-01-22T03:56:21.719Z,57.28
2023-01-22T03:58:50.860Z,79.32
2023-01-22T04:01:22.646Z,63.58
2023-01-22T04:03:51.933Z,77.72
2023-01-22T04:06:22.704Z,69.38
2023-01-22T04:08:52.707Z,72.93
2023-01-22T04:11:23.705Z,52.63
2023-01-22T04:13:51.361Z,63.60
2023-01-22T04:16:21.602Z,74.93
2023-01-22T04:19:21.450Z,74.22
2023-01-22T04:22:18.675Z,69.90
2023-01-22T04:24:48.867Z,68.78
2023-01-22T04:27:16.940Z,64.07
2023-01-22T04:29:44.448Z,61.92
2023-01-22T04:32:12.101Z,77.47
2023-01-22T04:35:05.313Z,61.17
2023-01-22T04:37:37.538Z,53.88
2023-01-22T04:40:05.821Z,54.20
2023-01-22T04:42:36.507Z,69.22
2023-01-22T04:45:05.461Z,62.30
2023-01-22T04:47:33.380Z,56.28
2023-01-22T04:50:01.012Z,53.35
2023-01-22T04:52:28.558Z,44.22
2023-01-22T04:54:56.088Z,59.50
2023-01-22T04:57:27.763Z,42.53
2023-01-22T04:59:55.967Z,51.47
2023-01-22T05:02:23.543Z,61.90
2023-01-22T05:04:52.372Z,51.60
2023-01-22T05:07:20.472Z,60.63
2023-01-22T05:09:48.104Z,55.20
2023-01-22T05:12:16.117Z,28.90
2023-01-22T05:14:45.112Z,46.15
2023-01-22T05:17:12.856Z,44.08
2023-01-22T05:19:40.551Z,42.72
2023-01-22T05:22:13.282Z,55.73
2023-01-22T05:24:41.246Z,60.90
2023-01-22T05:27:08.871Z,58.88
2023-01-22T05:29:46.662Z,57.08
2023-01-22T05:32:33.024Z,51.67
2023-01-22T05:35:05.053Z,58.83
2023-01-22T05:37:35.821Z,57.92
2023-01-22T05:40:05.647Z,69.45
2023-01-22T05:42:35.406Z,53.42
2023-01-22T05:45:05.408Z,72.50
2023-01-22T05:47:36.292Z,53.10
2023-01-22T05:50:26.843Z,53.08
2023-01-22T05:53:03.464Z,41.15
2023-01-22T05:55:32.118Z,44.58
2023-01-22T05:57:59.883Z,56.28
2023-01-22T06:00:28.649Z,74.93
2023-01-22T06:03:01.345Z,80.35
2023-01-22T06:05:32.516Z,66.28
2023-01-22T06:08:05.961Z,47.55
2023-01-22T06:10:41.453Z,75.57
2023-01-22T06:13:09.517Z,48.67
2023-01-22T06:15:37.148Z,49.75
2023-01-22T06:18:20.934Z,36.88
2023-01-22T06:20:48.675Z,65.38
2023-01-22T06:23:17.172Z,37.53
2023-01-22T06:25:45.081Z,55.95
2023-01-22T06:28:17.675Z,51.65
2023-01-22T06:30:46.145Z,46.92
2023-01-22T06:33:14.135Z,57.00
2023-01-22T06:35:41.952Z,33.15
2023-01-22T06:38:09.602Z,54.65
2023-01-22T06:40:37.448Z,45.40
2023-01-22T06:43:10.564Z,59.97
2023-01-22T06:45:39.401Z,66.25
2023-01-22T06:48:09.344Z,67.25
2023-01-22T06:50:36.912Z,80.25
2023-01-22T06:53:04.479Z,77.55
2023-01-22T06:55:32.284Z,70.68
2023-01-22T06:57:59.924Z,54.35
2023-01-22T07:00:27.524Z,68.13
2023-01-22T07:02:55.033Z,64.35
2023-01-22T07:05:23.261Z,58.65
2023-01-22T07:07:54.821Z,60.15
2023-01-22T07:10:22.583Z,74.50
2023-01-22T07:12:54.296Z,44.30
2023-01-22T07:15:22.161Z,73.50
2023-01-22T07:17:53.862Z,92.13
2023-01-22T07:20:23.607Z,70.72
2023-01-22T07:22:52.092Z,67.93
2023-01-22T07:25:20.064Z,87.18
2023-01-22T07:27:47.723Z,92.75
2023-01-22T07:30:15.415Z,90.68
2023-01-22T07:32:42.963Z,92.28
2023-01-22T07:35:10.504Z,91.97
2023-01-22T07:37:37.980Z,87.65
2023-01-22T07:40:06.197Z,90.32
2023-01-22T07:42:33.696Z,102.13
2023-01-22T07:45:02.243Z,87.50
2023-01-22T07:47:29.774Z,90.93
2023-01-22T07:49:57.191Z,85.07
2023-01-22T07:52:24.789Z,74.38
2023-01-22T07:54:52.257Z,85.05
2023-01-22T07:57:19.788Z,79.18
2023-01-22T07:59:47.254Z,77.20
2023-01-22T08:02:15.835Z,72.40
2023-01-22T08:04:43.748Z,57.63
2023-01-22T08:07:20.473Z,88.05
2023-01-22T08:09:47.991Z,81.80
2023-01-22T08:12:15.515Z,89.90
2023-01-22T08:14:43.014Z,86.13
2023-01-22T08:17:10.562Z,79.28
2023-01-22T08:19:38.183Z,83.05
2023-01-22T08:22:06.074Z,86.43
2023-01-22T08:24:34.753Z,63.22
2023-01-22T08:27:02.952Z,75.50
2023-01-22T08:29:30.499Z,72.63
2023-01-22T08:31:58.007Z,88.43
2023-01-22T08:34:25.623Z,86.63
2023-01-22T08:36:53.071Z,93.15
2023-01-22T08:39:20.645Z,66.03
2023-01-22T08:41:48.078Z,102.95
2023-01-22T08:44:15.696Z,66.90
2023-01-22T08:46:43.203Z,99.40
2023-01-22T08:49:10.809Z,77.18
2023-01-22T08:51:38.278Z,70.88
2023-01-22T08:54:06.019Z,65.22
2023-01-22T08:56:33.472Z,66.20
2023-01-22T08:59:06.647Z,67.63
2023-01-22T09:01:34.655Z,64.45
2023-01-22T09:04:02.104Z,57.97
2023-01-22T09:06:29.648Z,66.45
2023-01-22T09:08:59.019Z,70.38
2023-01-22T09:11:26.761Z,65.25
2023-01-22T09:13:56.358Z,58.80
2023-01-22T09:16:24.842Z,64.03
2023-01-22T09:18:52.510Z,68.18
2023-01-22T09:21:20.541Z,48.90
2023-01-22T09:23:48.031Z,50.45
2023-01-22T09:26:15.731Z,58.83
2023-01-22T09:28:43.213Z,56.35
2023-01-22T09:31:13.621Z,61.92
2023-01-22T09:33:41.144Z,68.07
2023-01-22T09:36:14.163Z,79.97
2023-01-22T09:38:42.808Z,92.50
2023-01-22T09:41:30.356Z,82.95
2023-01-22T09:44:06.433Z,71.03
2023-01-22T09:46:41.711Z,58.00
2023-01-22T09:49:17.663Z,66.82
2023-01-22T09:51:54.975Z,75.30
2023-01-22T09:54:23.112Z,47.65
2023-01-22T09:56:53.633Z,44.28
2023-01-22T09:59:27.161Z,62.50
2023-01-22T10:04:46.928Z,31.80
2023-01-22T10:07:24.272Z,40.03
2023-01-22T10:09:55.988Z,32.65
2023-01-22T10:12:23.569Z,39.03
2023-01-22T10:14:52.936Z,33.33
2023-01-22T10:17:25.111Z,30.63
2023-01-22T10:19:58.427Z,28.52
2023-01-22T10:22:27.784Z,28.38
2023-01-22T10:24:55.587Z,27.60
2023-01-22T10:27:39.562Z,29.38
2023-01-22T10:30:23.016Z,32.78
2023-01-22T10:33:02.141Z,32.22
2023-01-22T10:35:32.084Z,30.33
2023-01-22T10:38:00.925Z,26.38
2023-01-22T10:40:34.181Z,28.38
2023-01-22T10:43:18.672Z,29.80
2023-01-22T10:45:58.827Z,29.77
2023-01-22T10:48:26.621Z,27.98
2023-01-22T10:55:07.554Z,30.10
2023-01-22T10:57:37.028Z,27.02
2023-01-22T11:00:07.722Z,28.92
2023-01-22T11:02:36.408Z,25.02
2023-01-22T11:05:25.226Z,26.23
2023-01-22T11:08:03.594Z,24.65
2023-01-22T11:10:31.114Z,23.42
2023-01-22T11:13:06.932Z,26.00
2023-01-22T11:15:44.085Z,25.75
2023-01-22T11:18:22.532Z,22.70
2023-01-22T11:20:55.162Z,20.98
2023-01-22T11:23:34.797Z,22.42
2023-01-22T11:26:31.800Z,19.92
2023-01-22T11:29:11.549Z,20.27
2023-01-22T11:32:07.824Z,20.42
2023-01-22T11:34:52.530Z,21.20
2023-01-22T11:37:36.480Z,20.65
2023-01-22T11:43:09.787Z,20.42
2023-01-22T11:45:54.740Z,20.75
2023-01-22T11:48:24.963Z,21.05
2023-01-22T11:51:03.743Z,19.52
2023-01-22T11:53:53.048Z,21.52
2023-01-22T11:56:50.105Z,20.00
2023-01-22T11:59:35.824Z,19.75
2023-01-22T12:02:30.910Z,19.60
2023-01-22T12:05:40.296Z,18.65
2023-01-22T12:08:18.441Z,18.50
2023-01-22T12:11:07.341Z,19.40
2023-01-22T12:14:29.752Z,20.33
2023-01-22T12:17:05.044Z,20.73
2023-01-22T12:19:53.151Z,22.33
2023-01-22T12:22:26.732Z,24.50
2023-01-22T12:25:16.327Z,25.70
2023-01-22T12:27:47.619Z,26.40
2023-01-22T12:30:25.637Z,25.65
2023-01-22T12:33:00.314Z,27.90
2023-01-22T12:35:31.529Z,27.90
2023-01-22T12:38:27.789Z,29.60
2023-01-22T12:41:31.952Z,28.75
2023-01-22T12:44:25.789Z,30.85
2023-01-22T12:47:02.393Z,28.98
2023-01-22T12:49:29.991Z,29.65
2023-01-22T12:52:00.670Z,27.65
2023-01-22T12:54:32.581Z,29.90
2023-01-22T12:57:14.562Z,28.35
2023-01-22T12:59:43.901Z,28.13
2023-01-22T13:02:36.495Z,29.38
2023-01-22T13:05:20.440Z,30.15
2023-01-22T13:10:32.008Z,29.50
2023-01-22T13:13:13.259Z,30.63
2023-01-22T13:15:42.180Z,30.13
2023-01-22T13:18:31.708Z,28.67
2023-01-22T13:21:06.661Z,28.45
2023-01-22T13:23:42.030Z,28.52
2023-01-22T13:26:25.192Z,29.52
2023-01-22T13:29:21.148Z,27.40
2023-01-22T13:32:01.462Z,27.02
2023-01-22T13:34:30.064Z,26.02
2023-01-22T13:36:58.020Z,26.95
2023-01-22T13:39:33.315Z,25.83
2023-01-22T13:42:05.554Z,25.38
2023-01-22T13:44:39.980Z,24.95
2023-01-22T13:47:08.007Z,23.80
2023-01-22T13:49:42.975Z,25.35
2023-01-22T13:52:15.449Z,24.90
2023-01-22T13:54:58.578Z,25.02
2023-01-22T13:57:26.186Z,24.83
2023-01-22T14:00:01.430Z,23.67
2023-01-22T14:02:31.665Z,25.00
2023-01-22T14:04:59.371Z,26.60
2023-01-22T14:07:28.780Z,25.25
2023-01-22T14:09:57.841Z,25.40
2023-01-22T14:12:27.200Z,25.17
2023-01-22T14:14:55.050Z,25.63
2023-01-22T14:17:34.330Z,25.95
2023-01-22T14:20:02.847Z,26.40
2023-01-22T14:22:30.431Z,26.23
2023-01-22T14:24:58.123Z,26.63
2023-01-22T14:27:43.669Z,28.27
2023-01-22T14:30:14.706Z,27.10
2023-01-22T14:32:43.736Z,27.88
2023-01-22T14:35:19.754Z,28.23
2023-01-22T14:37:47.779Z,25.83
2023-01-22T14:40:17.721Z,27.70
2023-01-22T14:42:47.528Z,27.40
2023-01-22T14:45:16.770Z,26.80
2023-01-22T14:47:44.563Z,28.23
2023-01-22T14:50:12.196Z,27.95
2023-01-22T14:52:39.778Z,26.55
2023-01-22T14:55:07.611Z,26.90
2023-01-22T14:57:35.114Z,30.52
2023-01-22T15:00:04.856Z,31.60
2023-01-22T15:02:32.793Z,37.25
2023-01-22T15:05:00.368Z,43.28
2023-01-22T15:07:27.848Z,45.15
2023-01-22T15:09:55.324Z,60.35
2023-01-22T15:12:23.591Z,55.00
2023-01-22T15:14:51.040Z,71.25
2023-01-22T15:17:18.523Z,53.83
2023-01-22T15:19:46.028Z,71.13
2023-01-22T15:22:14.142Z,76.90
2023-01-22T15:24:43.854Z,66.78
2023-01-22T15:27:11.784Z,41.40
2023-01-22T15:29:39.268Z,54.30
2023-01-22T15:32:06.727Z,57.78
2023-01-22T15:34:34.309Z,59.33
2023-01-22T15:37:03.076Z,58.60
2023-01-22T15:39:31.191Z,25.92
2023-01-22T15:41:58.681Z,47.72
2023-01-22T15:44:26.233Z,30.38
2023-01-22T15:46:54.065Z,34.45
2023-01-22T15:49:21.554Z,70.50
2023-01-22T15:51:49.016Z,31.08
2023-01-22T15:54:16.951Z,47.30
2023-01-22T15:56:44.824Z,22.73
2023-01-22T15:59:12.758Z,26.75
2023-01-22T16:01:40.434Z,26.58
2023-01-22T16:04:08.672Z,26.73
2023-01-22T16:06:36.455Z,50.22
2023-01-22T16:09:06.206Z,67.30
2023-01-22T16:11:34.535Z,32.25
2023-01-22T16:14:02.124Z,67.53
2023-01-22T16:16:38.103Z,74.30
2023-01-22T16:19:08.000Z,79.35
2023-01-22T16:21:35.808Z,87.70
2023-01-22T16:24:03.977Z,87.00
2023-01-22T16:26:33.981Z,52.60
2023-01-22T16:29:04.205Z,84.13
2023-01-22T16:31:34.261Z,49.38
2023-01-22T16:34:08.997Z,78.38
2023-01-22T16:36:37.485Z,56.40
2023-01-22T16:39:05.341Z,30.00
2023-01-22T16:41:35.144Z,71.50
2023-01-22T16:44:11.958Z,80.82
2023-01-22T16:46:41.645Z,82.85
2023-01-22T16:49:28.446Z,74.72
2023-01-22T16:52:00.302Z,73.60
2023-01-22T16:54:33.373Z,82.38
2023-01-22T16:57:04.069Z,56.92
2023-01-22T16:59:33.144Z,68.57
2023-01-22T17:02:02.681Z,80.43
2023-01-22T17:04:30.373Z,76.57
2023-01-22T17:06:59.245Z,57.53
2023-01-22T17:09:32.341Z,65.88
2023-01-22T17:12:02.371Z,53.75
2023-01-22T17:14:32.201Z,60.28
2023-01-22T17:16:59.741Z,74.53
2023-01-22T17:19:27.816Z,52.50
2023-01-22T17:21:59.093Z,46.90
2023-01-22T17:24:28.222Z,64.95
2023-01-22T17:26:58.049Z,85.15
2023-01-22T17:29:25.953Z,71.72
2023-01-22T17:31:53.708Z,81.28
2023-01-22T17:34:21.379Z,91.30
2023-01-22T17:36:51.514Z,79.78
2023-01-22T17:39:21.192Z,80.00
2023-01-22T17:41:48.746Z,70.22
2023-01-22T17:44:16.273Z,75.22
2023-01-22T17:46:43.918Z,67.90
2023-01-22T17:49:11.737Z,79.47
2023-01-22T17:51:39.272Z,65.25
2023-01-22T17:54:06.824Z,98.70
2023-01-22T17:56:36.740Z,66.95
2023-01-22T17:59:06.617Z,77.30
2023-01-22T18:01:36.891Z,81.78
2023-01-22T18:04:07.359Z,86.78
2023-01-22T18:06:36.083Z,78.75
2023-01-22T18:09:05.811Z,89.03
2023-01-22T18:11:34.872Z,83.07
2023-01-22T18:14:06.847Z,65.32
2023-01-22T18:16:37.522Z,87.05
2023-01-22T18:19:07.504Z,84.50
2023-01-22T18:21:37.206Z,88.20
2023-01-22T18:24:06.845Z,71.88
2023-01-22T18:26:35.837Z,81.05
2023-01-22T18:29:04.056Z,73.32
2023-01-22T18:31:31.672Z,79.47
2023-01-22T18:34:02.362Z,57.92
2023-01-22T18:36:32.622Z,81.45
2023-01-22T18:39:06.972Z,78.63
2023-01-22T18:41:36.393Z,71.25
2023-01-22T18:44:04.138Z,76.53
2023-01-22T18:46:34.634Z,63.13
2023-01-22T18:49:11.041Z,79.25
2023-01-22T18:51:40.390Z,54.78
2023-01-22T18:54:08.816Z,59.13
2023-01-22T18:56:37.704Z,63.05
2023-01-22T18:59:05.862Z,80.53
2023-01-22T19:01:36.175Z,73.43
2023-01-22T19:04:07.049Z,71.88
2023-01-22T19:06:37.367Z,62.25
2023-01-22T19:09:06.513Z,57.72
2023-01-22T19:11:37.440Z,61.58
2023-01-22T19:14:07.267Z,50.22
2023-01-22T19:16:36.758Z,54.05
2023-01-22T19:19:11.386Z,44.08
2023-01-22T19:21:47.072Z,53.15
2023-01-22T19:24:17.143Z,52.03
2023-01-22T19:26:46.674Z,47.50
2023-01-22T19:29:19.869Z,43.78
2023-01-22T19:31:52.146Z,29.73
2023-01-22T19:34:26.001Z,48.00
2023-01-22T19:37:01.340Z,41.22
2023-01-22T19:39:29.336Z,46.80
2023-01-22T19:42:02.352Z,47.63
2023-01-22T19:44:30.840Z,45.85
2023-01-22T19:47:00.347Z,35.13
2023-01-22T19:49:28.373Z,41.60
2023-01-22T19:51:55.984Z,43.42
2023-01-22T19:54:24.803Z,40.60
2023-01-22T19:56:53.300Z,36.78
2023-01-22T19:59:23.389Z,41.03
2023-01-22T20:01:51.417Z,30.38
2023-01-22T20:04:28.872Z,34.63
2023-01-22T20:06:58.909Z,31.77
2023-01-22T20:09:27.048Z,36.80
2023-01-22T20:11:56.259Z,32.15
2023-01-22T20:14:26.243Z,33.00
2023-01-22T20:16:54.404Z,28.70
2023-01-22T20:19:22.154Z,40.17
2023-01-22T20:21:49.846Z,42.72
2023-01-22T20:24:17.440Z,32.38
2023-01-22T20:26:45.014Z,45.83
2023-01-22T20:29:13.032Z,48.90
2023-01-22T20:31:40.628Z,39.95
2023-01-22T20:34:08.234Z,42.33
2023-01-22T20:36:35.733Z,48.47
2023-01-22T20:39:04.212Z,39.28
2023-01-22T20:41:32.412Z,23.17
2023-01-22T20:44:00.099Z,35.65
2023-01-22T20:46:28.099Z,26.67
2023-01-22T20:48:58.184Z,30.65
2023-01-22T20:51:28.537Z,30.80
2023-01-22T20:53:57.327Z,29.35
2023-01-22T20:56:30.424Z,33.00
2023-01-22T20:59:04.067Z,37.17
2023-01-22T21:01:32.595Z,43.95
2023-01-22T21:04:01.603Z,45.00
2023-01-22T21:06:31.171Z,42.85
2023-01-22T21:09:01.289Z,34.03
2023-01-22T21:11:31.088Z,35.00
2023-01-22T21:14:00.062Z,38.80
2023-01-22T21:16:30.370Z,36.55
2023-01-22T21:19:03.711Z,38.22
2023-01-22T21:21:32.426Z,43.38
2023-01-22T21:24:00.630Z,31.10
2023-01-22T21:26:31.241Z,32.97
2023-01-22T21:29:05.141Z,34.90
2023-01-22T21:31:32.773Z,37.67
2023-01-22T21:34:05.277Z,40.55
2023-01-22T21:36:45.198Z,45.42
2023-01-22T21:39:16.204Z,33.65
2023-01-22T21:41:44.145Z,32.22
2023-01-22T21:44:36.912Z,27.30
2023-01-22T21:47:05.106Z,25.10
2023-01-22T21:49:34.974Z,23.63
2023-01-22T21:52:09.561Z,23.77
2023-01-22T21:54:39.752Z,22.77
2023-01-22T21:57:09.462Z,20.13
2023-01-22T21:59:37.148Z,22.00
2023-01-22T22:02:05.889Z,21.58
2023-01-22T22:04:34.301Z,20.30
2023-01-22T22:07:01.959Z,21.25
2023-01-22T22:09:30.771Z,20.10
2023-01-22T22:12:00.341Z,19.42
2023-01-22T22:14:28.171Z,19.23
2023-01-22T22:16:56.435Z,19.90
2023-01-22T22:19:25.181Z,17.75
2023-01-22T22:21:52.921Z,19.75
2023-01-22T22:24:20.815Z,16.83
2023-01-22T22:26:48.480Z,19.17
2023-01-22T22:29:16.035Z,16.98
2023-01-22T22:31:43.646Z,18.80
2023-01-22T22:34:11.298Z,17.77
2023-01-22T22:36:39.262Z,17.27
2023-01-22T22:39:06.930Z,18.23
2023-01-22T22:41:37.022Z,17.42
2023-01-22T22:44:05.661Z,18.25
2023-01-22T22:46:35.895Z,18.48
2023-01-22T22:49:04.582Z,18.98
2023-01-22T22:51:35.951Z,18.48
2023-01-22T22:54:06.399Z,18.00
2023-01-22T22:56:34.493Z,20.05
2023-01-22T22:59:03.183Z,18.88
2023-01-22T23:01:35.645Z,18.27
2023-01-22T23:04:03.694Z,18.67
2023-01-22T23:06:33.333Z,19.65
2023-01-22T23:09:12.364Z,18.88
2023-01-22T23:11:40.400Z,20.52
2023-01-22T23:14:08.565Z,20.77
2023-01-22T23:16:43.462Z,21.23
2023-01-22T23:19:16.407Z,22.30
2023-01-22T23:21:44.765Z,23.20
2023-01-22T23:24:13.929Z,23.35
2023-01-22T23:26:43.482Z,25.02
2023-01-22T23:29:13.189Z,24.42
2023-01-22T23:31:41.097Z,25.45
2023-01-22T23:34:12.883Z,26.70
2023-01-22T23:36:43.754Z,24.60
2023-01-22T23:39:15.707Z,27.25
2023-01-22T23:41:44.385Z,25.85
2023-01-22T23:44:12.599Z,25.63
2023-01-22T23:46:40.804Z,24.05
2023-01-22T23:49:08.435Z,26.13
2023-01-22T23:51:38.343Z,27.45
2023-01-22T23:54:05.868Z,26.02
2023-01-22T23:56:33.362Z,27.98
2023-01-22T23:59:00.936Z,32.95
